createdAt,value
2022-12-14T00:01:26.943Z,56.97
2022-12-14T00:03:54.544Z,65.50
2022-12-14T00:06:26.641Z,71.60
2022-12-14T00:08:55.465Z,62.45
2022-12-14T00:11:25.059Z,63.05
2022-12-14T00:13:59.853Z,56.97
2022-12-14T00:16:29.058Z,55.67
2022-12-14T00:18:57.666Z,55.00
2022-12-14T00:21:24.803Z,56.35
2022-12-14T00:23:52.832Z,55.33
2022-12-14T00:26:27.234Z,50.42
2022-12-14T00:28:55.381Z,60.13
2022-12-14T00:31:23.661Z,53.47
2022-12-14T00:33:50.563Z,43.75
2022-12-14T00:36:17.481Z,53.22
2022-12-14T00:38:44.581Z,78.15
2022-12-14T00:41:11.483Z,91.78
2022-12-14T00:43:38.296Z,93.18
2022-12-14T00:46:05.511Z,74.68
2022-12-14T00:48:33.129Z,51.53
2022-12-14T00:51:00.031Z,48.45
2022-12-14T00:53:26.642Z,44.20
2022-12-14T00:55:53.084Z,47.20
2022-12-14T00:58:22.634Z,53.97
2022-12-14T01:00:59.409Z,48.20
2022-12-14T01:03:26.249Z,40.33
2022-12-14T01:05:53.112Z,41.05
2022-12-14T01:08:20.053Z,40.75
2022-12-14T01:10:46.457Z,37.05
2022-12-14T01:13:12.892Z,64.35
2022-12-14T01:15:39.414Z,72.30
2022-12-14T01:18:05.907Z,66.35
2022-12-14T01:20:32.403Z,82.18
2022-12-14T01:22:58.966Z,67.10
2022-12-14T01:25:25.834Z,55.60
2022-12-14T01:27:52.368Z,98.05
2022-12-14T01:30:19.446Z,95.90
2022-12-14T01:32:46.786Z,89.63
2022-12-14T01:35:13.184Z,90.90
2022-12-14T01:37:39.601Z,67.72
2022-12-14T01:40:06.360Z,53.65
2022-12-14T01:42:35.809Z,41.85
2022-12-14T01:45:02.622Z,38.13
2022-12-14T01:47:41.956Z,32.60
2022-12-14T01:50:22.186Z,37.28
2022-12-14T01:52:51.499Z,37.80
2022-12-14T01:55:26.712Z,38.85
2022-12-14T01:58:03.134Z,33.42
2022-12-14T02:00:30.173Z,36.38
2022-12-14T02:03:20.085Z,40.17
2022-12-14T02:05:50.455Z,39.28
2022-12-14T02:08:19.055Z,35.42
2022-12-14T02:10:47.694Z,40.42
2022-12-14T02:13:33.124Z,32.70
2022-12-14T02:15:59.870Z,37.88
2022-12-14T02:18:31.439Z,35.60
2022-12-14T02:23:54.891Z,37.75
2022-12-14T02:26:49.736Z,40.38
2022-12-14T02:29:52.776Z,34.95
2022-12-14T02:32:26.477Z,35.92
2022-12-14T02:35:02.013Z,36.08
2022-12-14T02:37:57.162Z,36.72
2022-12-14T02:40:34.012Z,32.83
2022-12-14T02:43:18.906Z,36.28
2022-12-14T02:45:56.024Z,35.72
2022-12-14T02:48:24.464Z,33.55
2022-12-14T02:51:08.062Z,35.35
2022-12-14T02:53:42.237Z,35.30
2022-12-14T02:56:13.066Z,30.80
2022-12-14T02:58:43.695Z,35.17
2022-12-14T03:01:14.255Z,32.80
2022-12-14T03:03:41.524Z,35.30
2022-12-14T03:06:25.967Z,33.65
2022-12-14T03:09:03.972Z,31.33
2022-12-14T03:11:42.226Z,34.13
2022-12-14T03:14:22.917Z,32.53
2022-12-14T03:16:51.991Z,37.38
2022-12-14T03:19:24.834Z,27.00
2022-12-14T03:21:56.213Z,37.70
2022-12-14T03:24:29.688Z,31.35
2022-12-14T03:27:15.252Z,37.20
2022-12-14T03:29:49.613Z,29.52
2022-12-14T03:32:19.923Z,27.33
2022-12-14T03:35:00.086Z,33.80
2022-12-14T03:37:34.608Z,28.20
2022-12-14T03:40:01.210Z,31.00
2022-12-14T03:42:38.675Z,28.98
2022-12-14T03:45:26.025Z,30.10
2022-12-14T03:48:09.538Z,25.90
2022-12-14T03:50:39.497Z,29.50
2022-12-14T03:53:18.111Z,30.00
2022-12-14T03:55:52.521Z,29.92
2022-12-14T03:58:42.121Z,32.30
2022-12-14T04:01:29.446Z,34.90
2022-12-14T04:04:20.412Z,29.10
2022-12-14T04:07:02.098Z,33.77
2022-12-14T04:09:39.989Z,28.75
2022-12-14T04:12:36.780Z,28.67
2022-12-14T04:15:30.657Z,32.75
2022-12-14T04:18:21.043Z,28.38
2022-12-14T04:20:59.504Z,27.10
2022-12-14T04:23:51.825Z,33.25
2022-12-14T04:26:25.532Z,29.15
2022-12-14T04:29:16.239Z,30.75
2022-12-14T04:31:49.797Z,31.65
2022-12-14T04:34:19.818Z,34.33
2022-12-14T04:36:51.337Z,33.08
2022-12-14T04:39:43.279Z,31.23
2022-12-14T04:42:12.635Z,35.67
2022-12-14T04:44:52.057Z,28.40
2022-12-14T04:47:26.467Z,37.78
2022-12-14T04:50:00.534Z,32.72
2022-12-14T04:52:48.235Z,31.15
2022-12-14T04:55:29.056Z,31.25
2022-12-14T04:58:21.364Z,34.30
2022-12-14T05:01:20.852Z,27.10
2022-12-14T05:04:07.088Z,32.88
2022-12-14T05:06:51.185Z,30.23
2022-12-14T05:09:20.596Z,34.08
2022-12-14T05:12:20.366Z,30.88
2022-12-14T05:14:59.569Z,31.27
2022-12-14T05:17:27.188Z,92.78
2022-12-14T05:19:54.308Z,75.57
2022-12-14T05:22:20.853Z,68.95
2022-12-14T05:24:47.344Z,47.10
2022-12-14T05:27:13.744Z,37.22
2022-12-14T05:29:40.365Z,36.22
2022-12-14T05:32:06.813Z,26.90
2022-12-14T05:34:34.114Z,33.08
2022-12-14T05:37:00.559Z,35.65
2022-12-14T05:39:26.997Z,55.83
2022-12-14T05:41:53.531Z,40.50
2022-12-14T05:44:20.467Z,45.58
2022-12-14T05:46:46.920Z,33.55
2022-12-14T05:49:13.346Z,97.30
2022-12-14T05:51:40.667Z,51.58
2022-12-14T05:54:07.309Z,62.67
2022-12-14T05:56:33.800Z,44.13
2022-12-14T05:59:00.403Z,57.15
2022-12-14T06:01:26.934Z,46.08
2022-12-14T06:03:53.544Z,120.60
2022-12-14T06:06:20.150Z,74.60
2022-12-14T06:08:47.274Z,62.25
2022-12-14T06:11:19.571Z,65.60
2022-12-14T06:13:46.570Z,43.00
2022-12-14T06:16:14.444Z,25.60
2022-12-14T06:18:52.531Z,32.30
2022-12-14T06:21:21.272Z,68.45
2022-12-14T06:23:48.141Z,47.45
2022-12-14T06:26:15.636Z,64.25
2022-12-14T06:28:42.944Z,82.07
2022-12-14T06:31:20.763Z,44.30
2022-12-14T06:33:47.960Z,27.67
2022-12-14T06:36:19.636Z,55.47
2022-12-14T06:38:46.224Z,45.85
2022-12-14T06:41:12.606Z,35.25
2022-12-14T06:43:39.079Z,54.35
2022-12-14T06:46:14.842Z,58.63
2022-12-14T06:48:42.475Z,47.75
2022-12-14T06:51:09.201Z,34.97
2022-12-14T06:53:36.410Z,33.53
2022-12-14T06:56:10.388Z,27.10
2022-12-14T06:58:37.009Z,31.88
2022-12-14T07:01:04.933Z,24.05
2022-12-14T07:03:35.030Z,39.63
2022-12-14T07:06:09.398Z,26.98
2022-12-14T07:08:38.183Z,23.23
2022-12-14T07:11:13.587Z,25.83
2022-12-14T07:13:42.785Z,28.52
2022-12-14T07:16:31.417Z,23.98
2022-12-14T07:18:59.334Z,27.85
2022-12-14T07:21:29.449Z,29.48
2022-12-14T07:24:20.312Z,30.38
2022-12-14T07:26:46.851Z,28.08
2022-12-14T07:29:31.077Z,33.53
2022-12-14T07:32:15.362Z,21.02
2022-12-14T07:34:52.187Z,29.40
2022-12-14T07:37:27.535Z,37.03
2022-12-14T07:39:57.290Z,32.00
2022-12-14T07:42:23.942Z,31.67
2022-12-14T07:45:05.420Z,34.72
2022-12-14T07:47:34.046Z,36.58
2022-12-14T07:50:03.158Z,38.33
2022-12-14T07:52:44.101Z,30.08
2022-12-14T07:55:17.970Z,30.35
2022-12-14T07:57:44.579Z,32.40
2022-12-14T08:00:13.510Z,33.72
2022-12-14T08:02:46.116Z,34.75
2022-12-14T08:05:12.983Z,34.95
2022-12-14T08:07:39.463Z,32.67
2022-12-14T08:10:06.612Z,29.92
2022-12-14T08:12:33.110Z,30.50
2022-12-14T08:14:59.488Z,51.95
2022-12-14T08:17:25.906Z,39.38
2022-12-14T08:19:52.488Z,28.52
2022-12-14T08:22:18.928Z,31.90
2022-12-14T08:24:49.600Z,28.23
2022-12-14T08:27:16.527Z,36.58
2022-12-14T08:29:46.360Z,35.90
2022-12-14T08:32:17.940Z,33.55
2022-12-14T08:37:11.505Z,30.02
2022-12-14T08:39:38.147Z,33.47
2022-12-14T08:42:04.586Z,33.33
2022-12-14T08:44:31.170Z,27.40
2022-12-14T08:47:08.431Z,25.20
2022-12-14T08:49:34.949Z,31.42
2022-12-14T08:52:01.432Z,31.42
2022-12-14T08:54:28.026Z,25.17
2022-12-14T08:56:54.500Z,27.50
2022-12-14T08:59:51.987Z,24.17
2022-12-14T09:02:18.077Z,24.73
2022-12-14T09:04:44.568Z,25.92
2022-12-14T09:07:11.006Z,24.83
2022-12-14T09:09:37.657Z,25.45
2022-12-14T09:12:07.390Z,21.33
2022-12-14T09:14:37.672Z,23.23
2022-12-14T09:17:04.543Z,24.45
2022-12-14T09:19:30.983Z,21.33
2022-12-14T09:21:58.010Z,26.48
2022-12-14T09:24:24.537Z,21.83
2022-12-14T09:26:51.728Z,22.58
2022-12-14T09:29:21.857Z,25.17
2022-12-14T09:31:48.420Z,21.85
2022-12-14T09:34:14.930Z,25.83
2022-12-14T09:36:42.172Z,21.95
2022-12-14T09:39:08.696Z,28.10
2022-12-14T09:41:43.629Z,24.08
2022-12-14T09:44:24.803Z,24.75
2022-12-14T09:47:02.643Z,30.17
2022-12-14T09:49:33.809Z,26.70
2022-12-14T09:52:05.315Z,28.20
2022-12-14T09:54:38.293Z,33.22
2022-12-14T09:57:19.642Z,30.90
2022-12-14T09:59:46.110Z,31.70
2022-12-14T10:02:40.703Z,34.22
2022-12-14T10:05:19.597Z,31.65
2022-12-14T10:07:59.288Z,34.35
2022-12-14T10:10:36.962Z,30.52
2022-12-14T10:13:24.672Z,36.22
2022-12-14T10:16:26.675Z,61.38
2022-12-14T10:19:16.584Z,34.55
2022-12-14T10:21:55.149Z,39.25
2022-12-14T10:24:34.041Z,36.65
2022-12-14T10:27:01.817Z,44.55
2022-12-14T10:29:40.070Z,36.72
2022-12-14T10:32:06.723Z,35.72
2022-12-14T10:34:34.764Z,50.67
2022-12-14T10:37:25.507Z,37.55
2022-12-14T10:40:16.424Z,38.13
2022-12-14T10:43:34.344Z,42.92
2022-12-14T10:48:48.188Z,39.92
2022-12-14T10:51:30.173Z,36.15
2022-12-14T10:54:38.425Z,40.47
2022-12-14T10:57:06.174Z,35.75
2022-12-14T10:59:42.334Z,38.80
2022-12-14T11:04:59.956Z,39.40
2022-12-14T11:07:53.416Z,34.60
2022-12-14T11:10:22.531Z,35.72
2022-12-14T11:13:01.492Z,37.88
2022-12-14T11:16:21.896Z,32.97
2022-12-14T11:19:02.111Z,40.75
2022-12-14T11:21:34.284Z,34.70
2022-12-14T11:24:01.847Z,38.53
2022-12-14T11:26:33.915Z,33.42
2022-12-14T11:29:02.847Z,37.95
2022-12-14T11:31:39.713Z,34.80
2022-12-14T11:34:27.848Z,35.45
2022-12-14T11:36:54.348Z,35.33
2022-12-14T11:39:23.709Z,32.38
2022-12-14T11:41:57.969Z,27.80
2022-12-14T11:44:33.278Z,32.72
2022-12-14T11:47:05.184Z,36.30
2022-12-14T11:49:39.525Z,33.05
2022-12-14T11:52:05.997Z,32.80
2022-12-14T11:54:38.461Z,29.23
2022-12-14T11:57:18.416Z,32.45
2022-12-14T11:59:58.067Z,32.92
2022-12-14T12:02:30.045Z,31.00
2022-12-14T12:05:19.843Z,39.63
2022-12-14T12:07:49.585Z,33.55
2022-12-14T12:10:40.996Z,37.33
2022-12-14T12:13:32.425Z,37.65
2022-12-14T12:16:13.526Z,34.95
2022-12-14T12:18:50.491Z,39.10
2022-12-14T12:21:26.537Z,32.38
2022-12-14T12:24:15.129Z,35.05
2022-12-14T12:27:15.530Z,30.55
2022-12-14T12:29:54.961Z,31.98
2022-12-14T12:32:24.978Z,38.10
2022-12-14T12:35:14.962Z,35.10
2022-12-14T12:38:20.590Z,38.10
2022-12-14T12:41:03.151Z,34.60
2022-12-14T12:43:50.031Z,34.85
2022-12-14T12:46:22.826Z,39.72
2022-12-14T12:49:01.702Z,40.50
2022-12-14T12:51:35.014Z,41.08
2022-12-14T12:54:06.581Z,61.15
2022-12-14T12:59:04.499Z,40.45
2022-12-14T13:01:46.111Z,35.08
2022-12-14T13:07:05.179Z,35.42
2022-12-14T13:09:49.004Z,69.50
2022-12-14T13:12:41.943Z,41.58
2022-12-14T13:15:19.374Z,36.05
2022-12-14T13:17:50.745Z,47.58
2022-12-14T13:20:30.604Z,49.88
2022-12-14T13:23:05.702Z,45.28
2022-12-14T13:26:48.634Z,44.65
2022-12-14T13:29:27.958Z,49.05
2022-12-14T13:32:22.187Z,39.17
2022-12-14T13:35:07.029Z,35.75
2022-12-14T13:37:42.585Z,38.17
2022-12-14T13:40:39.499Z,47.53
2022-12-14T13:43:35.522Z,35.25
2022-12-14T13:46:11.416Z,39.53
2022-12-14T13:48:41.396Z,40.75
2022-12-14T13:51:18.921Z,44.92
2022-12-14T13:53:50.411Z,43.53
2022-12-14T13:56:32.451Z,35.70
2022-12-14T13:59:02.924Z,38.70
2022-12-14T14:01:47.855Z,36.72
2022-12-14T14:04:18.528Z,31.33
2022-12-14T14:06:49.753Z,32.93
2022-12-14T14:09:35.053Z,34.33
2022-12-14T14:12:28.547Z,33.65
2022-12-14T14:15:35.923Z,32.22
2022-12-14T14:18:07.569Z,34.58
2022-12-14T14:20:45.299Z,34.58
2022-12-14T14:23:15.269Z,34.28
2022-12-14T14:26:13.805Z,38.75
2022-12-14T14:28:40.587Z,34.45
2022-12-14T14:31:07.291Z,33.50
2022-12-14T14:33:50.759Z,40.17
2022-12-14T14:36:33.502Z,35.17
2022-12-14T14:39:54.569Z,38.72
2022-12-14T14:42:34.642Z,33.08
2022-12-14T14:45:21.656Z,36.22
2022-12-14T14:47:55.766Z,36.85
2022-12-14T14:50:29.448Z,35.67
2022-12-14T14:53:25.037Z,39.95
2022-12-14T14:56:05.208Z,38.33
2022-12-14T14:58:39.759Z,37.08
2022-12-14T15:01:09.295Z,38.47
2022-12-14T15:03:48.130Z,37.95
2022-12-14T15:06:17.731Z,40.63
2022-12-14T15:08:48.865Z,40.78
2022-12-14T15:11:19.713Z,38.25
2022-12-14T15:13:56.517Z,42.00
2022-12-14T15:16:40.609Z,44.00
2022-12-14T15:19:29.323Z,35.10
2022-12-14T15:22:12.928Z,36.45
2022-12-14T15:24:42.419Z,38.95
2022-12-14T15:27:38.057Z,40.97
2022-12-14T15:30:19.115Z,43.58
2022-12-14T15:32:58.966Z,50.47
2022-12-14T15:35:29.614Z,44.47
2022-12-14T15:38:18.574Z,47.63
2022-12-14T15:40:57.571Z,42.08
2022-12-14T15:43:25.484Z,48.90
2022-12-14T15:45:55.992Z,43.38
2022-12-14T15:48:29.912Z,42.53
2022-12-14T15:51:13.076Z,40.28
2022-12-14T15:53:50.274Z,39.70
2022-12-14T15:56:43.997Z,38.38
2022-12-14T15:59:20.184Z,44.13
2022-12-14T16:01:54.325Z,42.92
2022-12-14T16:04:27.822Z,41.60
2022-12-14T16:07:12.164Z,37.20
2022-12-14T16:09:49.952Z,42.97
2022-12-14T16:12:44.268Z,46.78
2022-12-14T16:15:24.183Z,34.55
2022-12-14T16:17:59.041Z,45.95
2022-12-14T16:20:31.703Z,38.22
2022-12-14T16:23:13.050Z,42.63
2022-12-14T16:25:52.394Z,42.05
2022-12-14T16:28:34.242Z,56.53
2022-12-14T16:31:12.685Z,45.20
2022-12-14T16:33:42.727Z,44.78
2022-12-14T16:36:18.295Z,84.53
2022-12-14T16:38:55.882Z,124.95
2022-12-14T16:41:37.475Z,55.90
2022-12-14T16:44:07.529Z,59.10
2022-12-14T16:46:34.155Z,88.13
2022-12-14T16:49:22.014Z,77.13
2022-12-14T16:52:12.926Z,56.45
2022-12-14T16:54:40.267Z,39.97
2022-12-14T16:57:18.507Z,39.20
2022-12-14T16:59:46.926Z,49.65
2022-12-14T17:02:34.732Z,37.22
2022-12-14T17:05:13.327Z,32.72
2022-12-14T17:07:40.050Z,27.58
2022-12-14T17:10:22.403Z,36.70
2022-12-14T17:12:49.156Z,37.90
2022-12-14T17:15:17.556Z,30.95
2022-12-14T17:17:45.767Z,35.58
2022-12-14T17:20:25.869Z,36.40
2022-12-14T17:22:54.148Z,34.10
2022-12-14T17:25:21.029Z,39.00
2022-12-14T17:27:47.843Z,52.75
2022-12-14T17:30:17.771Z,87.63
2022-12-14T17:32:44.980Z,57.58
2022-12-14T17:35:26.383Z,61.55
2022-12-14T17:37:52.808Z,104.65
2022-12-14T17:40:19.299Z,74.22
2022-12-14T17:42:52.229Z,72.78
2022-12-14T17:45:28.341Z,43.92
2022-12-14T17:47:54.830Z,49.85
2022-12-14T17:50:22.092Z,45.78
2022-12-14T17:52:50.257Z,42.10
2022-12-14T17:55:22.643Z,36.63
2022-12-14T17:57:49.656Z,34.65
2022-12-14T18:00:40.666Z,31.80
2022-12-14T18:03:07.575Z,43.17
2022-12-14T18:05:34.236Z,36.42
2022-12-14T18:08:00.859Z,38.10
2022-12-14T18:10:28.211Z,31.63
2022-12-14T18:12:55.537Z,31.05
2022-12-14T18:15:28.702Z,35.95
2022-12-14T18:17:55.555Z,36.83
2022-12-14T18:20:23.880Z,34.55
2022-12-14T18:22:51.086Z,35.70
2022-12-14T18:25:31.741Z,35.53
2022-12-14T18:28:00.141Z,37.28
2022-12-14T18:30:30.934Z,39.92
2022-12-14T18:33:01.560Z,42.28
2022-12-14T18:35:33.125Z,38.33
2022-12-14T18:40:29.104Z,34.35
2022-12-14T18:42:56.298Z,37.97
2022-12-14T18:45:24.125Z,36.22
2022-12-14T18:47:51.630Z,79.25
2022-12-14T18:50:18.808Z,42.67
2022-12-14T18:52:46.148Z,36.15
2022-12-14T18:55:24.793Z,37.80
2022-12-14T18:57:54.400Z,32.45
2022-12-14T19:00:23.672Z,39.50
2022-12-14T19:02:50.803Z,35.92
2022-12-14T19:05:25.636Z,41.63
2022-12-14T19:07:53.052Z,37.53
2022-12-14T19:10:25.625Z,45.22
2022-12-14T19:12:52.549Z,56.72
2022-12-14T19:15:31.386Z,57.80
2022-12-14T19:17:58.028Z,49.85
2022-12-14T19:20:25.577Z,46.25
2022-12-14T19:22:52.143Z,36.67
2022-12-14T19:25:19.746Z,40.50
2022-12-14T19:28:26.077Z,37.20
2022-12-14T19:30:34.543Z,37.97
2022-12-14T19:33:01.047Z,38.55
2022-12-14T19:35:27.450Z,36.20
2022-12-14T19:37:53.983Z,37.47
2022-12-14T19:40:21.246Z,41.85
2022-12-14T19:42:47.669Z,42.65
2022-12-14T19:45:15.191Z,53.05
2022-12-14T19:47:43.938Z,47.85
2022-12-14T19:50:14.137Z,38.65
2022-12-14T19:52:40.787Z,39.47
2022-12-14T19:55:07.497Z,43.38
2022-12-14T19:57:33.935Z,42.30
2022-12-14T20:00:00.719Z,41.80
2022-12-14T20:02:27.510Z,43.55
2022-12-14T20:04:54.193Z,46.78
2022-12-14T20:07:20.697Z,49.58
2022-12-14T20:09:47.197Z,49.05
2022-12-14T20:12:13.735Z,47.88
2022-12-14T20:14:40.304Z,47.88
2022-12-14T20:17:08.363Z,42.60
2022-12-14T20:19:36.066Z,39.53
2022-12-14T20:22:03.474Z,44.60
2022-12-14T20:24:30.329Z,47.22
2022-12-14T20:26:56.844Z,40.38
2022-12-14T20:29:23.311Z,48.50
2022-12-14T20:31:50.110Z,54.13
2022-12-14T20:34:16.594Z,44.35
2022-12-14T20:36:43.029Z,46.42
2022-12-14T20:39:09.972Z,45.00
2022-12-14T20:41:36.623Z,41.97
2022-12-14T20:44:07.475Z,49.45
2022-12-14T20:46:36.551Z,44.97
2022-12-14T20:49:10.255Z,50.97
2022-12-14T20:51:38.434Z,46.80
2022-12-14T20:54:07.642Z,49.08
2022-12-14T20:56:35.297Z,44.03
2022-12-14T20:59:02.686Z,44.67
2022-12-14T21:01:29.780Z,51.25
2022-12-14T21:03:59.172Z,43.53
2022-12-14T21:06:25.702Z,41.63
2022-12-14T21:09:11.502Z,39.53
2022-12-14T21:12:01.890Z,47.05
2022-12-14T21:14:31.076Z,46.40
2022-12-14T21:16:59.253Z,45.90
2022-12-14T21:19:26.223Z,49.35
2022-12-14T21:21:54.062Z,48.00
2022-12-14T21:24:52.505Z,41.58
2022-12-14T21:27:14.747Z,45.28
2022-12-14T21:29:41.157Z,51.45
2022-12-14T21:32:07.739Z,44.75
2022-12-14T21:34:34.295Z,48.10
2022-12-14T21:37:00.740Z,50.88
2022-12-14T21:39:27.142Z,50.40
2022-12-14T21:42:11.992Z,42.75
2022-12-14T21:44:46.203Z,42.75
2022-12-14T21:47:15.451Z,40.20
2022-12-14T21:49:43.830Z,45.08
2022-12-14T21:52:14.009Z,40.50
2022-12-14T21:54:41.548Z,37.55
2022-12-14T21:57:31.596Z,46.15
2022-12-14T21:59:58.273Z,44.75
2022-12-14T22:02:25.583Z,47.38
2022-12-14T22:04:56.175Z,43.22
2022-12-14T22:07:28.757Z,47.13
2022-12-14T22:09:55.151Z,45.05
2022-12-14T22:12:21.702Z,45.90
2022-12-14T22:14:49.291Z,42.72
2022-12-14T22:17:15.798Z,39.15
2022-12-14T22:19:42.225Z,41.63
2022-12-14T22:22:14.520Z,46.65
2022-12-14T22:24:41.071Z,38.53
2022-12-14T22:27:08.511Z,37.30
2022-12-14T22:29:34.978Z,38.47
2022-12-14T22:32:01.432Z,39.42
2022-12-14T22:34:27.896Z,44.80
2022-12-14T22:36:54.304Z,49.08
2022-12-14T22:39:20.753Z,43.60
2022-12-14T22:41:48.953Z,43.67
2022-12-14T22:44:15.448Z,46.25
2022-12-14T22:46:41.965Z,41.85
2022-12-14T22:49:08.852Z,44.10
2022-12-14T22:51:35.419Z,50.20
2022-12-14T22:54:03.069Z,45.58
2022-12-14T22:56:48.579Z,40.45
2022-12-14T22:59:27.078Z,44.95
2022-12-14T23:01:54.985Z,43.50
2022-12-14T23:04:21.671Z,48.80
2022-12-14T23:06:48.229Z,50.05
2022-12-14T23:09:33.077Z,45.88
2022-12-14T23:12:21.510Z,43.67
2022-12-14T23:15:07.074Z,44.70
2022-12-14T23:17:52.449Z,47.00
2022-12-14T23:20:37.112Z,47.88
2022-12-14T23:23:26.580Z,47.83
2022-12-14T23:26:11.702Z,42.00
2022-12-14T23:28:56.882Z,52.03
2022-12-14T23:31:41.725Z,49.28
2022-12-14T23:34:26.927Z,48.13
2022-12-14T23:37:15.100Z,45.40
2022-12-14T23:40:04.458Z,53.53
2022-12-14T23:42:49.409Z,43.17
2022-12-14T23:45:34.526Z,50.30
2022-12-14T23:48:19.386Z,40.55
2022-12-14T23:51:03.983Z,48.78
2022-12-14T23:53:49.804Z,44.88
2022-12-14T23:56:35.607Z,44.03
2022-12-14T23:59:20.840Z,50.45
